createdAt,value
2023-04-08T00:02:29.652Z,41.64
2023-04-08T00:05:38.116Z,37.90
2023-04-08T00:08:46.570Z,36.58
2023-04-08T00:11:53.330Z,36.76
2023-04-08T00:14:59.244Z,32.69
2023-04-08T00:18:06.328Z,30.89
2023-04-08T00:21:12.459Z,30.97
2023-04-08T00:24:24.887Z,29.36
2023-04-08T00:27:31.118Z,27.75
2023-04-08T00:30:38.561Z,27.60
2023-04-08T00:33:46.579Z,28.23
2023-04-08T00:36:53.513Z,30.24
2023-04-08T00:40:02.019Z,31.68
2023-04-08T00:43:08.888Z,31.76
2023-04-08T00:46:15.235Z,30.59
2023-04-08T00:49:22.455Z,32.16
2023-04-08T00:52:28.265Z,29.70
2023-04-08T00:55:37.700Z,30.81
2023-04-08T00:58:44.062Z,31.40
2023-04-08T01:02:02.748Z,31.47
2023-04-08T01:05:16.443Z,31.18
2023-04-08T01:08:28.481Z,32.74
2023-04-08T01:11:41.699Z,31.28
2023-04-08T01:14:55.038Z,29.03
2023-04-08T01:18:04.849Z,27.43
2023-04-08T01:21:14.813Z,27.23
2023-04-08T01:24:32.704Z,27.50
2023-04-08T01:27:46.376Z,27.61
2023-04-08T01:30:54.878Z,26.44
2023-04-08T01:34:06.888Z,27.63
2023-04-08T01:37:14.210Z,26.99
2023-04-08T01:40:27.068Z,26.71
2023-04-08T01:43:39.543Z,26.65
2023-04-08T01:46:49.309Z,26.35
2023-04-08T01:49:58.288Z,25.22
2023-04-08T01:53:09.460Z,24.86
2023-04-08T01:56:18.841Z,25.44
2023-04-08T01:59:39.452Z,27.22
2023-04-08T02:02:50.489Z,26.91
2023-04-08T02:05:58.236Z,28.06
2023-04-08T02:09:06.048Z,29.47
2023-04-08T02:12:12.745Z,33.13
2023-04-08T02:15:21.335Z,33.18
2023-04-08T02:18:32.039Z,33.06
2023-04-08T02:21:50.570Z,33.30
2023-04-08T02:24:57.399Z,33.20
2023-04-08T02:28:09.209Z,32.66
2023-04-08T02:31:22.527Z,32.82
2023-04-08T02:34:30.169Z,32.32
2023-04-08T02:37:39.746Z,33.10
2023-04-08T02:40:46.144Z,32.21
2023-04-08T02:43:55.841Z,30.87
2023-04-08T02:47:04.448Z,30.56
2023-04-08T02:50:15.001Z,32.71
2023-04-08T02:53:21.082Z,32.39
2023-04-08T02:56:27.854Z,33.14
2023-04-08T02:59:33.682Z,33.12
2023-04-08T03:02:43.179Z,33.30
2023-04-08T03:05:49.306Z,35.97
2023-04-08T03:08:56.015Z,34.34
2023-04-08T03:12:02.023Z,34.57
2023-04-08T03:15:10.450Z,34.95
2023-04-08T03:18:22.382Z,34.59
2023-04-08T03:21:32.012Z,34.58
2023-04-08T03:24:37.831Z,35.70
2023-04-08T03:27:44.685Z,34.97
2023-04-08T03:30:52.630Z,35.65
2023-04-08T03:34:02.062Z,35.93
2023-04-08T03:37:08.016Z,35.61
2023-04-08T03:40:16.438Z,36.90
2023-04-08T03:43:22.618Z,36.12
2023-04-08T03:46:29.434Z,35.85
2023-04-08T03:49:38.127Z,36.82
2023-04-08T03:52:44.865Z,37.50
2023-04-08T03:55:53.785Z,36.11
2023-04-08T03:59:00.926Z,35.26
2023-04-08T04:02:06.941Z,35.10
2023-04-08T04:05:16.287Z,34.76
2023-04-08T04:08:22.619Z,34.02
2023-04-08T04:11:29.473Z,34.45
2023-04-08T04:14:35.521Z,35.17
2023-04-08T04:17:42.279Z,38.04
2023-04-08T04:20:50.787Z,42.11
2023-04-08T04:23:57.668Z,51.98
2023-04-08T04:27:03.620Z,50.12
2023-04-08T04:30:15.814Z,49.66
2023-04-08T04:33:22.299Z,45.84
2023-04-08T04:36:32.380Z,39.73
2023-04-08T04:39:38.378Z,37.58
2023-04-08T04:42:45.175Z,39.38
2023-04-08T04:45:51.107Z,65.99
2023-04-08T04:48:57.907Z,61.15
2023-04-08T04:52:06.325Z,80.48
2023-04-08T04:55:15.481Z,97.32
2023-04-08T04:58:21.773Z,83.07
2023-04-08T05:01:29.288Z,79.90
2023-04-08T05:04:35.398Z,69.35
2023-04-08T05:07:45.021Z,51.56
2023-04-08T05:10:51.167Z,71.68
2023-04-08T05:13:57.839Z,63.48
2023-04-08T05:17:03.773Z,36.42
2023-04-08T05:20:12.105Z,34.39
2023-04-08T05:23:20.788Z,34.68
2023-04-08T05:26:27.516Z,32.87
2023-04-08T05:29:36.437Z,33.00
2023-04-08T05:32:43.447Z,30.86
2023-04-08T05:35:49.767Z,31.06
2023-04-08T05:38:59.814Z,31.25
2023-04-08T05:42:06.884Z,33.06
2023-04-08T05:45:14.492Z,30.03
2023-04-08T05:48:20.417Z,31.31
2023-04-08T05:51:27.132Z,31.62
2023-04-08T05:54:35.933Z,31.90
2023-04-08T05:57:42.936Z,31.68
2023-04-08T06:00:50.197Z,30.05
2023-04-08T06:03:57.237Z,30.06
2023-04-08T06:07:04.747Z,29.75
2023-04-08T06:10:15.014Z,30.66
2023-04-08T06:13:22.284Z,30.15
2023-04-08T06:16:28.981Z,30.92
2023-04-08T06:19:35.149Z,37.75
2023-04-08T06:22:42.044Z,48.02
2023-04-08T06:25:50.614Z,63.61
2023-04-08T06:28:59.587Z,58.08
2023-04-08T06:32:10.346Z,47.38
2023-04-08T06:35:18.395Z,47.25
2023-04-08T06:38:24.288Z,45.26
2023-04-08T06:41:33.832Z,35.13
2023-04-08T06:44:53.973Z,28.65
2023-04-08T06:48:00.862Z,29.62
2023-04-08T06:51:08.173Z,29.61
2023-04-08T06:54:14.965Z,27.84
2023-04-08T06:57:23.588Z,28.97
2023-04-08T07:00:30.628Z,27.38
2023-04-08T07:03:36.753Z,28.30
2023-04-08T07:06:43.509Z,29.45
2023-04-08T07:09:49.441Z,28.13
2023-04-08T07:12:58.814Z,26.55
2023-04-08T07:16:04.899Z,24.09
2023-04-08T07:19:12.130Z,22.92
2023-04-08T07:22:18.788Z,23.01
2023-04-08T07:25:25.667Z,20.89
2023-04-08T07:28:37.749Z,21.61
2023-04-08T07:31:46.397Z,22.83
2023-04-08T07:34:52.272Z,19.82
2023-04-08T07:37:59.219Z,18.84
2023-04-08T07:41:05.363Z,18.46
2023-04-08T07:44:17.429Z,17.47
2023-04-08T07:47:23.581Z,18.19
2023-04-08T07:50:30.396Z,16.16
2023-04-08T07:53:36.595Z,17.04
2023-04-08T07:56:44.856Z,17.15
2023-04-08T07:59:53.709Z,17.57
2023-04-08T08:03:01.392Z,18.58
2023-04-08T08:06:16.720Z,17.57
2023-04-08T08:09:23.519Z,16.93
2023-04-08T08:12:29.455Z,18.20
2023-04-08T08:15:38.884Z,16.29
2023-04-08T08:18:45.034Z,13.90
2023-04-08T08:21:52.593Z,14.23
2023-04-08T08:25:07.618Z,16.17
2023-04-08T08:28:14.792Z,17.37
2023-04-08T08:31:23.406Z,15.94
2023-04-08T08:34:30.224Z,15.89
2023-04-08T08:37:36.066Z,14.87
2023-04-08T08:40:43.508Z,15.28
2023-04-08T08:43:51.769Z,15.83
2023-04-08T08:47:01.620Z,17.20
2023-04-08T08:50:08.658Z,19.49
2023-04-08T08:53:15.726Z,18.61
2023-04-08T08:56:22.157Z,17.54
2023-04-08T08:59:28.935Z,15.35
2023-04-08T09:02:37.673Z,13.36
2023-04-08T09:05:52.689Z,14.24
2023-04-08T09:09:01.898Z,15.35
2023-04-08T09:12:17.022Z,13.62
2023-04-08T09:15:24.051Z,15.57
2023-04-08T09:18:33.926Z,16.21
2023-04-08T09:21:54.485Z,16.00
2023-04-08T09:25:27.433Z,14.40
2023-04-08T09:28:41.668Z,13.64
2023-04-08T09:31:58.970Z,13.48
2023-04-08T09:35:12.103Z,13.56
2023-04-08T09:38:19.016Z,13.62
2023-04-08T09:41:36.877Z,13.23
2023-04-08T09:44:50.331Z,13.96
2023-04-08T09:48:08.285Z,13.63
2023-04-08T09:51:22.317Z,13.05
2023-04-08T09:54:47.294Z,13.13
2023-04-08T09:58:08.684Z,11.12
2023-04-08T10:01:32.515Z,12.01
2023-04-08T10:04:47.412Z,10.68
2023-04-08T10:07:56.510Z,10.85
2023-04-08T10:11:04.072Z,10.41
2023-04-08T10:14:22.437Z,10.96
2023-04-08T10:17:36.409Z,10.76
2023-04-08T10:20:47.953Z,10.59
2023-04-08T10:24:06.671Z,10.65
2023-04-08T10:27:43.993Z,10.26
2023-04-08T10:30:52.383Z,11.79
2023-04-08T10:33:58.440Z,11.26
2023-04-08T10:37:06.855Z,11.71
2023-04-08T10:40:22.701Z,11.65
2023-04-08T10:43:29.737Z,10.76
2023-04-08T10:46:41.776Z,10.06
2023-04-08T10:49:50.610Z,11.58
2023-04-08T10:52:59.803Z,11.43
2023-04-08T10:56:15.511Z,12.16
2023-04-08T10:59:37.227Z,11.21
2023-04-08T11:02:44.484Z,11.30
2023-04-08T11:05:52.301Z,13.29
2023-04-08T11:09:01.709Z,13.50
2023-04-08T11:12:10.933Z,14.04
2023-04-08T11:15:18.616Z,14.87
2023-04-08T11:18:26.430Z,14.40
2023-04-08T11:21:34.920Z,14.72
2023-04-08T11:24:41.574Z,15.55
2023-04-08T11:27:53.924Z,15.71
2023-04-08T11:31:09.229Z,15.80
2023-04-08T11:34:26.254Z,17.02
2023-04-08T11:37:41.391Z,17.53
2023-04-08T11:40:57.306Z,17.99
2023-04-08T11:44:11.441Z,16.20
2023-04-08T11:47:18.244Z,16.43
2023-04-08T11:50:35.613Z,17.50
2023-04-08T11:53:48.238Z,17.60
2023-04-08T11:56:56.495Z,17.76
2023-04-08T12:00:06.472Z,17.54
2023-04-08T12:03:17.063Z,18.31
2023-04-08T12:06:30.728Z,18.26
2023-04-08T12:09:36.999Z,18.57
2023-04-08T12:12:44.503Z,17.76
2023-04-08T12:15:53.334Z,18.18
2023-04-08T12:19:00.140Z,18.72
2023-04-08T12:22:06.333Z,18.91
2023-04-08T12:25:13.664Z,18.54
2023-04-08T12:28:19.597Z,19.59
2023-04-08T12:31:28.990Z,18.22
2023-04-08T12:34:35.623Z,18.05
2023-04-08T12:37:44.386Z,18.53
2023-04-08T12:40:50.374Z,19.00
2023-04-08T12:43:57.069Z,19.73
2023-04-08T12:47:12.115Z,19.16
2023-04-08T12:50:23.884Z,19.20
2023-04-08T12:53:30.197Z,20.54
2023-04-08T12:56:36.971Z,20.26
2023-04-08T12:59:43.040Z,19.49
2023-04-08T13:02:52.465Z,21.42
2023-04-08T13:05:59.336Z,20.91
2023-04-08T13:09:10.335Z,21.74
2023-04-08T13:12:16.590Z,20.35
2023-04-08T13:15:23.604Z,19.67
2023-04-08T13:18:32.311Z,20.21
2023-04-08T13:21:39.267Z,21.19
2023-04-08T13:24:45.420Z,23.20
2023-04-08T13:27:52.274Z,21.71
2023-04-08T13:31:01.233Z,22.91
2023-04-08T13:34:17.214Z,22.13
2023-04-08T13:37:23.263Z,22.69
2023-04-08T13:40:30.668Z,22.27
2023-04-08T13:43:39.492Z,22.48
2023-04-08T13:46:46.559Z,22.23
2023-04-08T13:50:01.768Z,22.21
2023-04-08T13:53:10.394Z,23.05
2023-04-08T13:56:16.602Z,30.53
2023-04-08T13:59:31.405Z,38.43
2023-04-08T14:02:40.849Z,34.40
2023-04-08T14:05:56.449Z,29.55
2023-04-08T14:09:02.351Z,30.45
2023-04-08T14:12:09.252Z,31.25
2023-04-08T14:15:16.485Z,24.12
2023-04-08T14:18:23.501Z,24.29
2023-04-08T14:21:32.136Z,24.15
2023-04-08T14:24:49.247Z,27.55
2023-04-08T14:27:58.777Z,24.96
2023-04-08T14:31:07.018Z,23.89
2023-04-08T14:34:15.097Z,23.98
2023-04-08T14:37:24.826Z,24.38
2023-04-08T14:40:33.562Z,23.47
2023-04-08T14:43:43.254Z,22.30
2023-04-08T14:46:51.063Z,23.15
2023-04-08T14:49:58.025Z,25.12
2023-04-08T14:53:06.834Z,27.66
2023-04-08T14:56:14.135Z,30.90
2023-04-08T14:59:23.161Z,28.75
2023-04-08T15:02:34.091Z,25.14
2023-04-08T15:05:43.076Z,20.67
2023-04-08T15:08:53.962Z,21.72
2023-04-08T15:12:00.380Z,21.12
2023-04-08T15:15:11.594Z,21.05
2023-04-08T15:18:28.815Z,21.75
2023-04-08T15:21:36.624Z,20.87
2023-04-08T15:24:48.599Z,21.58
2023-04-08T15:27:55.537Z,22.37
2023-04-08T15:31:04.233Z,22.22
2023-04-08T15:34:11.230Z,25.91
2023-04-08T15:37:20.585Z,25.91
2023-04-08T15:40:30.082Z,22.24
2023-04-08T15:43:39.477Z,22.30
2023-04-08T15:46:46.754Z,24.56
2023-04-08T15:49:56.119Z,25.99
2023-04-08T15:53:09.771Z,23.34
2023-04-08T15:56:22.965Z,23.97
2023-04-08T15:59:32.763Z,22.81
2023-04-08T16:02:39.191Z,25.25
2023-04-08T16:05:47.563Z,25.75
2023-04-08T16:08:53.450Z,24.40
2023-04-08T16:12:05.405Z,24.97
2023-04-08T16:15:13.953Z,27.56
2023-04-08T16:18:24.386Z,30.95
2023-04-08T16:21:30.856Z,47.19
2023-04-08T16:24:39.550Z,46.68
2023-04-08T16:27:49.399Z,38.82
2023-04-08T16:30:56.361Z,33.49
2023-04-08T16:34:08.793Z,30.09
2023-04-08T16:37:16.736Z,28.87
2023-04-08T16:40:25.024Z,30.67
2023-04-08T16:43:34.820Z,30.60
2023-04-08T16:46:40.874Z,30.59
2023-04-08T16:49:47.766Z,31.49
2023-04-08T16:52:54.766Z,30.87
2023-04-08T16:56:01.485Z,28.69
2023-04-08T16:59:18.469Z,30.60
2023-04-08T17:02:31.892Z,37.29
2023-04-08T17:05:48.348Z,43.30
2023-04-08T17:08:56.607Z,41.98
2023-04-08T17:12:02.601Z,38.63
2023-04-08T17:15:21.838Z,39.56
2023-04-08T17:18:33.846Z,39.37
2023-04-08T17:21:42.419Z,41.20
2023-04-08T17:24:48.715Z,40.56
2023-04-08T17:27:55.490Z,41.39
2023-04-08T17:31:08.970Z,42.18
2023-04-08T17:34:16.323Z,42.65
2023-04-08T17:37:23.007Z,45.56
2023-04-08T17:40:29.914Z,47.23
2023-04-08T17:43:49.409Z,53.86
2023-04-08T17:47:01.012Z,55.67
2023-04-08T17:50:12.013Z,58.40
2023-04-08T17:53:21.073Z,49.10
2023-04-08T17:56:28.060Z,49.07
2023-04-08T17:59:35.001Z,54.17
2023-04-08T18:02:43.640Z,57.71
2023-04-08T18:05:50.781Z,55.70
2023-04-08T18:08:59.325Z,52.56
2023-04-08T18:12:06.725Z,55.87
2023-04-08T18:15:14.269Z,51.35
2023-04-08T18:18:25.424Z,50.28
2023-04-08T18:21:31.781Z,50.59
2023-04-08T18:24:38.540Z,53.91
2023-04-08T18:27:44.698Z,54.87
2023-04-08T18:30:55.115Z,55.40
2023-04-08T18:34:03.662Z,52.49
2023-04-08T18:37:11.236Z,47.98
2023-04-08T18:40:28.312Z,54.16
2023-04-08T18:43:36.572Z,60.01
2023-04-08T18:46:46.101Z,46.39
2023-04-08T18:49:56.861Z,44.28
2023-04-08T18:53:05.758Z,42.61
2023-04-08T18:56:18.810Z,43.17
2023-04-08T18:59:30.360Z,59.15
2023-04-08T19:02:37.319Z,53.56
2023-04-08T19:05:46.869Z,55.75
2023-04-08T19:08:53.750Z,51.00
2023-04-08T19:12:00.238Z,46.64
2023-04-08T19:15:11.483Z,44.68
2023-04-08T19:18:17.383Z,47.19
2023-04-08T19:21:28.398Z,52.17
2023-04-08T19:24:34.362Z,58.98
2023-04-08T19:27:47.265Z,54.97
2023-04-08T19:30:53.461Z,50.38
2023-04-08T19:34:00.364Z,49.08
2023-04-08T19:37:09.149Z,51.44
2023-04-08T19:40:16.269Z,44.15
2023-04-08T19:43:22.176Z,42.23
2023-04-08T19:46:28.996Z,52.63
2023-04-08T19:49:35.063Z,57.33
2023-04-08T19:52:44.553Z,58.63
2023-04-08T19:55:50.629Z,56.43
2023-04-08T19:59:00.281Z,54.31
2023-04-08T20:02:06.968Z,50.44
2023-04-08T20:05:17.669Z,47.94
2023-04-08T20:08:26.558Z,59.10
2023-04-08T20:11:33.589Z,65.28
2023-04-08T20:14:46.363Z,57.52
2023-04-08T20:17:53.618Z,57.33
2023-04-08T20:21:00.913Z,62.71
2023-04-08T20:24:15.303Z,63.59
2023-04-08T20:27:21.984Z,66.80
2023-04-08T20:30:28.921Z,59.91
2023-04-08T20:33:35.087Z,49.58
2023-04-08T20:36:42.978Z,49.85
2023-04-08T20:39:57.872Z,54.59
2023-04-08T20:43:06.180Z,85.55
2023-04-08T20:46:14.142Z,71.25
2023-04-08T20:49:21.400Z,60.15
2023-04-08T20:52:27.467Z,64.26
2023-04-08T20:55:41.097Z,59.97
2023-04-08T20:58:47.043Z,58.29
2023-04-08T21:01:56.795Z,60.34
2023-04-08T21:05:03.005Z,59.10
2023-04-08T21:08:12.086Z,52.36
2023-04-08T21:11:21.377Z,44.02
2023-04-08T21:14:28.070Z,39.73
2023-04-08T21:17:34.032Z,38.61
2023-04-08T21:20:46.909Z,41.24
2023-04-08T21:23:52.744Z,46.95
2023-04-08T21:27:09.893Z,46.63
2023-04-08T21:30:17.190Z,48.00
2023-04-08T21:33:24.093Z,49.08
2023-04-08T21:36:31.162Z,52.33
2023-04-08T21:39:37.882Z,60.50
2023-04-08T21:42:46.760Z,54.09
2023-04-08T21:45:53.794Z,49.23
2023-04-08T21:48:59.794Z,44.30
2023-04-08T21:52:12.918Z,41.39
2023-04-08T21:55:18.848Z,41.67
2023-04-08T21:58:28.493Z,47.97
2023-04-08T22:01:34.630Z,53.10
2023-04-08T22:04:44.999Z,51.44
2023-04-08T22:07:51.218Z,53.57
2023-04-08T22:10:57.944Z,54.85
2023-04-08T22:14:12.462Z,55.46
2023-04-08T22:17:19.296Z,55.86
2023-04-08T22:20:26.503Z,56.07
2023-04-08T22:23:38.487Z,59.11
2023-04-08T22:26:44.815Z,61.98
2023-04-08T22:29:54.183Z,64.64
2023-04-08T22:33:00.190Z,66.21
2023-04-08T22:36:08.216Z,71.76
2023-04-08T22:39:14.038Z,75.91
2023-04-08T22:42:21.054Z,77.96
2023-04-08T22:45:29.652Z,74.97
2023-04-08T22:48:36.605Z,73.46
2023-04-08T22:51:43.258Z,73.52
2023-04-08T22:54:53.149Z,70.17
2023-04-08T22:57:59.174Z,67.37
2023-04-08T23:01:25.916Z,69.14
2023-04-08T23:04:32.792Z,69.46
2023-04-08T23:07:44.346Z,71.77
2023-04-08T23:10:50.263Z,71.96
2023-04-08T23:14:03.947Z,71.87
2023-04-08T23:17:20.904Z,71.36
2023-04-08T23:20:28.258Z,68.72
2023-04-08T23:23:34.332Z,66.42
2023-04-08T23:26:41.487Z,67.48
2023-04-08T23:29:47.383Z,67.66
2023-04-08T23:32:56.739Z,69.32
2023-04-08T23:36:02.636Z,69.86
2023-04-08T23:39:16.313Z,70.57
2023-04-08T23:42:27.500Z,67.98
2023-04-08T23:45:37.362Z,64.16
2023-04-08T23:48:46.401Z,64.57
2023-04-08T23:51:53.891Z,65.76
2023-04-08T23:54:59.838Z,69.08
2023-04-08T23:58:06.798Z,73.62
